sensor_id;sensor_type;location;lat;lon;timestamp;temperature;humidity
13472;DHT22;6808;49.444;11.034;2023-02-14T00:02:05;2.90;99.90
13472;DHT22;6808;49.444;11.034;2023-02-14T00:04:31;2.90;99.90
13472;DHT22;6808;49.444;11.034;2023-02-14T00:06:57;2.90;99.90
13472;DHT22;6808;49.444;11.034;2023-02-14T00:09:23;2.90;99.90
13472;DHT22;6808;49.444;11.034;2023-02-14T00:11:49;2.90;99.90
13472;DHT22;6808;49.444;11.034;2023-02-14T00:14:15;2.90;99.90
13472;DHT22;6808;49.444;11.034;2023-02-14T00:17:00;2.80;99.90
13472;DHT22;6808;49.444;11.034;2023-02-14T00:19:25;2.80;99.90
13472;DHT22;6808;49.444;11.034;2023-02-14T00:21:51;2.70;99.90
13472;DHT22;6808;49.444;11.034;2023-02-14T00:24:20;2.70;99.90
13472;DHT22;6808;49.444;11.034;2023-02-14T00:26:46;2.80;99.90
13472;DHT22;6808;49.444;11.034;2023-02-14T00:29:23;2.70;99.90
13472;DHT22;6808;49.444;11.034;2023-02-14T00:31:50;2.70;99.90
13472;DHT22;6808;49.444;11.034;2023-02-14T00:34:16;2.60;99.90
13472;DHT22;6808;49.444;11.034;2023-02-14T00:36:42;2.60;99.90
13472;DHT22;6808;49.444;11.034;2023-02-14T00:39:10;2.60;99.90
13472;DHT22;6808;49.444;11.034;2023-02-14T00:41:36;2.70;99.90
13472;DHT22;6808;49.444;11.034;2023-02-14T00:44:02;2.70;99.90
13472;DHT22;6808;49.444;11.034;2023-02-14T00:46:27;2.70;99.90
13472;DHT22;6808;49.444;11.034;2023-02-14T00:48:53;2.80;99.90
13472;DHT22;6808;49.444;11.034;2023-02-14T00:51:19;2.70;99.90
13472;DHT22;6808;49.444;11.034;2023-02-14T00:53:46;2.60;99.90
13472;DHT22;6808;49.444;11.034;2023-02-14T00:56:12;2.70;99.90
13472;DHT22;6808;49.444;11.034;2023-02-14T00:58:38;2.50;99.90
13472;DHT22;6808;49.444;11.034;2023-02-14T01:01:04;2.50;99.90
13472;DHT22;6808;49.444;11.034;2023-02-14T01:03:30;2.50;99.90
13472;DHT22;6808;49.444;11.034;2023-02-14T01:05:56;2.50;99.90
13472;DHT22;6808;49.444;11.034;2023-02-14T01:08:21;2.50;99.90
13472;DHT22;6808;49.444;11.034;2023-02-14T01:10:47;2.50;99.90
13472;DHT22;6808;49.444;11.034;2023-02-14T01:13:13;2.50;99.90
13472;DHT22;6808;49.444;11.034;2023-02-14T01:15:44;2.60;99.90
13472;DHT22;6808;49.444;11.034;2023-02-14T01:18:10;2.60;99.90
13472;DHT22;6808;49.444;11.034;2023-02-14T01:20:37;2.60;99.90
13472;DHT22;6808;49.444;11.034;2023-02-14T01:23:03;2.60;99.90
13472;DHT22;6808;49.444;11.034;2023-02-14T01:25:32;2.60;99.90
13472;DHT22;6808;49.444;11.034;2023-02-14T01:28:00;2.60;99.90
13472;DHT22;6808;49.444;11.034;2023-02-14T01:30:25;2.60;99.90
13472;DHT22;6808;49.444;11.034;2023-02-14T01:32:51;2.60;99.90
13472;DHT22;6808;49.444;11.034;2023-02-14T01:35:17;2.50;99.90
13472;DHT22;6808;49.444;11.034;2023-02-14T01:37:46;2.50;99.90
13472;DHT22;6808;49.444;11.034;2023-02-14T01:40:12;2.60;99.90
13472;DHT22;6808;49.444;11.034;2023-02-14T01:42:38;2.50;99.90
13472;DHT22;6808;49.444;11.034;2023-02-14T01:45:17;2.40;99.90
13472;DHT22;6808;49.444;11.034;2023-02-14T01:47:45;2.40;99.90
13472;DHT22;6808;49.444;11.034;2023-02-14T01:50:20;2.40;99.90
13472;DHT22;6808;49.444;11.034;2023-02-14T01:52:52;2.50;99.90
13472;DHT22;6808;49.444;11.034;2023-02-14T01:55:22;2.50;99.90
13472;DHT22;6808;49.444;11.034;2023-02-14T01:58:19;2.50;99.90
13472;DHT22;6808;49.444;11.034;2023-02-14T02:00:45;2.50;99.90
13472;DHT22;6808;49.444;11.034;2023-02-14T02:03:36;2.50;99.90
13472;DHT22;6808;49.444;11.034;2023-02-14T02:06:17;2.60;99.90
13472;DHT22;6808;49.444;11.034;2023-02-14T02:11:34;2.40;99.90
13472;DHT22;6808;49.444;11.034;2023-02-14T02:14:01;2.20;99.90
13472;DHT22;6808;49.444;11.034;2023-02-14T02:16:52;2.20;99.90
13472;DHT22;6808;49.444;11.034;2023-02-14T02:21:51;2.30;99.90
13472;DHT22;6808;49.444;11.034;2023-02-14T02:27:17;2.20;99.90
13472;DHT22;6808;49.444;11.034;2023-02-14T02:40:50;2.40;99.90
13472;DHT22;6808;49.444;11.034;2023-02-14T02:46:21;2.30;99.90
13472;DHT22;6808;49.444;11.034;2023-02-14T02:52:36;2.20;99.90
13472;DHT22;6808;49.444;11.034;2023-02-14T02:55:40;2.20;99.90
13472;DHT22;6808;49.444;11.034;2023-02-14T02:58:39;2.10;99.90
13472;DHT22;6808;49.444;11.034;2023-02-14T03:01:12;2.10;99.90
13472;DHT22;6808;49.444;11.034;2023-02-14T03:03:40;2.00;99.90
13472;DHT22;6808;49.444;11.034;2023-02-14T03:06:25;1.90;99.90
13472;DHT22;6808;49.444;11.034;2023-02-14T03:08:51;1.90;99.90
13472;DHT22;6808;49.444;11.034;2023-02-14T03:11:17;1.90;99.90
13472;DHT22;6808;49.444;11.034;2023-02-14T03:13:49;2.00;99.90
13472;DHT22;6808;49.444;11.034;2023-02-14T03:16:32;1.90;99.90
13472;DHT22;6808;49.444;11.034;2023-02-14T03:19:16;1.80;99.90
13472;DHT22;6808;49.444;11.034;2023-02-14T03:22:07;1.80;99.90
13472;DHT22;6808;49.444;11.034;2023-02-14T03:24:55;1.70;99.90
13472;DHT22;6808;49.444;11.034;2023-02-14T03:27:27;1.80;99.90
13472;DHT22;6808;49.444;11.034;2023-02-14T03:30:08;1.80;99.90
13472;DHT22;6808;49.444;11.034;2023-02-14T03:32:49;1.70;99.90
13472;DHT22;6808;49.444;11.034;2023-02-14T03:35:31;1.70;99.90
13472;DHT22;6808;49.444;11.034;2023-02-14T03:38:24;2.60;99.90
13472;DHT22;6808;49.444;11.034;2023-02-14T03:40:56;1.70;99.90
13472;DHT22;6808;49.444;11.034;2023-02-14T03:43:44;1.70;99.90
13472;DHT22;6808;49.444;11.034;2023-02-14T03:46:19;1.60;99.90
13472;DHT22;6808;49.444;11.034;2023-02-14T03:48:46;1.60;99.90
13472;DHT22;6808;49.444;11.034;2023-02-14T03:51:13;1.60;99.90
13472;DHT22;6808;49.444;11.034;2023-02-14T03:53:44;1.70;99.90
13472;DHT22;6808;49.444;11.034;2023-02-14T03:56:33;1.60;99.90
13472;DHT22;6808;49.444;11.034;2023-02-14T03:59:05;1.60;99.90
13472;DHT22;6808;49.444;11.034;2023-02-14T04:04:11;1.60;99.90
13472;DHT22;6808;49.444;11.034;2023-02-14T04:06:38;1.60;99.90
13472;DHT22;6808;49.444;11.034;2023-02-14T04:09:04;1.60;99.90
13472;DHT22;6808;49.444;11.034;2023-02-14T04:11:32;1.60;99.90
13472;DHT22;6808;49.444;11.034;2023-02-14T04:14:01;1.60;99.90
13472;DHT22;6808;49.444;11.034;2023-02-14T04:16:26;1.60;99.90
13472;DHT22;6808;49.444;11.034;2023-02-14T04:18:52;1.70;99.90
13472;DHT22;6808;49.444;11.034;2023-02-14T04:21:36;1.70;99.90
13472;DHT22;6808;49.444;11.034;2023-02-14T04:24:02;1.70;99.90
13472;DHT22;6808;49.444;11.034;2023-02-14T04:26:27;1.80;99.90
13472;DHT22;6808;49.444;11.034;2023-02-14T04:28:53;1.90;99.90
13472;DHT22;6808;49.444;11.034;2023-02-14T04:31:20;1.80;99.90
13472;DHT22;6808;49.444;11.034;2023-02-14T04:33:46;1.80;99.90
13472;DHT22;6808;49.444;11.034;2023-02-14T04:36:13;1.80;99.90
13472;DHT22;6808;49.444;11.034;2023-02-14T04:38:38;1.80;99.90
13472;DHT22;6808;49.444;11.034;2023-02-14T04:41:04;1.90;99.90
13472;DHT22;6808;49.444;11.034;2023-02-14T04:43:29;1.80;99.90
13472;DHT22;6808;49.444;11.034;2023-02-14T04:45:55;1.70;99.90
13472;DHT22;6808;49.444;11.034;2023-02-14T04:48:21;1.50;99.90
13472;DHT22;6808;49.444;11.034;2023-02-14T04:50:51;1.60;99.90
13472;DHT22;6808;49.444;11.034;2023-02-14T04:53:17;1.60;99.90
13472;DHT22;6808;49.444;11.034;2023-02-14T04:55:44;2.20;99.90
13472;DHT22;6808;49.444;11.034;2023-02-14T04:58:09;1.70;99.90
13472;DHT22;6808;49.444;11.034;2023-02-14T05:00:35;1.70;99.90
13472;DHT22;6808;49.444;11.034;2023-02-14T05:03:00;1.70;99.90
13472;DHT22;6808;49.444;11.034;2023-02-14T05:05:26;1.80;99.90
13472;DHT22;6808;49.444;11.034;2023-02-14T05:07:52;1.80;99.90
13472;DHT22;6808;49.444;11.034;2023-02-14T05:10:17;1.80;99.90
13472;DHT22;6808;49.444;11.034;2023-02-14T05:12:49;1.80;99.90
13472;DHT22;6808;49.444;11.034;2023-02-14T05:15:15;1.80;99.90
13472;DHT22;6808;49.444;11.034;2023-02-14T05:17:45;1.70;99.90
13472;DHT22;6808;49.444;11.034;2023-02-14T05:20:10;1.60;99.90
13472;DHT22;6808;49.444;11.034;2023-02-14T05:22:37;2.50;99.90
13472;DHT22;6808;49.444;11.034;2023-02-14T05:25:02;1.50;99.90
13472;DHT22;6808;49.444;11.034;2023-02-14T05:27:28;1.50;99.90
13472;DHT22;6808;49.444;11.034;2023-02-14T05:29:53;1.50;99.90
13472;DHT22;6808;49.444;11.034;2023-02-14T05:32:20;1.60;99.90
13472;DHT22;6808;49.444;11.034;2023-02-14T05:34:46;1.50;99.90
13472;DHT22;6808;49.444;11.034;2023-02-14T05:37:11;1.40;99.90
13472;DHT22;6808;49.444;11.034;2023-02-14T05:39:37;1.50;99.90
13472;DHT22;6808;49.444;11.034;2023-02-14T05:42:02;1.50;99.90
13472;DHT22;6808;49.444;11.034;2023-02-14T05:44:28;1.60;99.90
13472;DHT22;6808;49.444;11.034;2023-02-14T05:46:53;1.60;99.90
13472;DHT22;6808;49.444;11.034;2023-02-14T05:49:19;1.70;99.90
13472;DHT22;6808;49.444;11.034;2023-02-14T05:51:46;1.70;99.90
13472;DHT22;6808;49.444;11.034;2023-02-14T05:54:11;1.70;99.90
13472;DHT22;6808;49.444;11.034;2023-02-14T05:56:37;1.70;99.90
13472;DHT22;6808;49.444;11.034;2023-02-14T05:59:02;1.70;99.90
13472;DHT22;6808;49.444;11.034;2023-02-14T06:01:28;1.60;99.90
13472;DHT22;6808;49.444;11.034;2023-02-14T06:03:54;1.60;99.90
13472;DHT22;6808;49.444;11.034;2023-02-14T06:06:20;1.60;99.90
13472;DHT22;6808;49.444;11.034;2023-02-14T06:08:46;1.50;99.90
13472;DHT22;6808;49.444;11.034;2023-02-14T06:11:11;1.60;99.90
13472;DHT22;6808;49.444;11.034;2023-02-14T06:13:37;1.50;99.90
13472;DHT22;6808;49.444;11.034;2023-02-14T06:16:04;1.40;99.90
13472;DHT22;6808;49.444;11.034;2023-02-14T06:18:30;1.40;99.90
13472;DHT22;6808;49.444;11.034;2023-02-14T06:20:56;1.50;99.90
13472;DHT22;6808;49.444;11.034;2023-02-14T06:23:21;1.60;99.90
13472;DHT22;6808;49.444;11.034;2023-02-14T06:25:47;1.70;99.90
13472;DHT22;6808;49.444;11.034;2023-02-14T06:28:12;1.70;99.90
13472;DHT22;6808;49.444;11.034;2023-02-14T06:30:38;1.70;99.90
13472;DHT22;6808;49.444;11.034;2023-02-14T06:33:03;1.70;99.90
13472;DHT22;6808;49.444;11.034;2023-02-14T06:35:29;1.70;99.90
13472;DHT22;6808;49.444;11.034;2023-02-14T06:37:55;1.80;99.90
13472;DHT22;6808;49.444;11.034;2023-02-14T06:40:20;1.70;99.90
13472;DHT22;6808;49.444;11.034;2023-02-14T06:42:46;1.70;99.90
13472;DHT22;6808;49.444;11.034;2023-02-14T06:45:11;1.60;99.90
13472;DHT22;6808;49.444;11.034;2023-02-14T06:47:37;1.70;99.90
13472;DHT22;6808;49.444;11.034;2023-02-14T06:50:03;1.70;99.90
13472;DHT22;6808;49.444;11.034;2023-02-14T06:52:31;1.70;99.90
13472;DHT22;6808;49.444;11.034;2023-02-14T06:54:58;1.60;99.90
13472;DHT22;6808;49.444;11.034;2023-02-14T06:57:24;1.50;99.90
13472;DHT22;6808;49.444;11.034;2023-02-14T06:59:50;1.50;99.90
13472;DHT22;6808;49.444;11.034;2023-02-14T07:02:15;1.60;99.90
13472;DHT22;6808;49.444;11.034;2023-02-14T07:04:41;1.60;99.90
13472;DHT22;6808;49.444;11.034;2023-02-14T07:07:06;1.60;99.90
13472;DHT22;6808;49.444;11.034;2023-02-14T07:09:32;1.60;99.90
13472;DHT22;6808;49.444;11.034;2023-02-14T07:11:57;1.60;99.90
13472;DHT22;6808;49.444;11.034;2023-02-14T07:14:23;1.50;99.90
13472;DHT22;6808;49.444;11.034;2023-02-14T07:16:49;1.60;99.90
13472;DHT22;6808;49.444;11.034;2023-02-14T07:19:14;1.60;99.90
13472;DHT22;6808;49.444;11.034;2023-02-14T07:21:40;1.60;99.90
13472;DHT22;6808;49.444;11.034;2023-02-14T07:24:05;1.60;99.90
13472;DHT22;6808;49.444;11.034;2023-02-14T07:26:31;1.50;99.90
13472;DHT22;6808;49.444;11.034;2023-02-14T07:28:57;1.50;99.90
13472;DHT22;6808;49.444;11.034;2023-02-14T07:31:24;1.40;99.90
13472;DHT22;6808;49.444;11.034;2023-02-14T07:33:50;1.40;99.90
13472;DHT22;6808;49.444;11.034;2023-02-14T07:36:17;1.40;99.90
13472;DHT22;6808;49.444;11.034;2023-02-14T07:38:42;1.30;99.90
13472;DHT22;6808;49.444;11.034;2023-02-14T07:41:08;1.30;99.90
13472;DHT22;6808;49.444;11.034;2023-02-14T07:43:33;1.40;99.90
13472;DHT22;6808;49.444;11.034;2023-02-14T07:46:00;1.40;99.90
13472;DHT22;6808;49.444;11.034;2023-02-14T07:48:28;1.40;99.90
13472;DHT22;6808;49.444;11.034;2023-02-14T07:50:54;1.30;99.90
13472;DHT22;6808;49.444;11.034;2023-02-14T07:53:22;1.30;99.90
13472;DHT22;6808;49.444;11.034;2023-02-14T07:55:49;1.20;99.90
13472;DHT22;6808;49.444;11.034;2023-02-14T07:58:15;1.20;99.90
13472;DHT22;6808;49.444;11.034;2023-02-14T08:00:43;1.10;99.90
13472;DHT22;6808;49.444;11.034;2023-02-14T08:03:08;1.20;99.90
13472;DHT22;6808;49.444;11.034;2023-02-14T08:05:35;1.20;99.90
13472;DHT22;6808;49.444;11.034;2023-02-14T08:08:00;1.20;99.90
13472;DHT22;6808;49.444;11.034;2023-02-14T08:10:26;1.10;99.90
13472;DHT22;6808;49.444;11.034;2023-02-14T08:12:52;1.20;99.90
13472;DHT22;6808;49.444;11.034;2023-02-14T08:15:31;1.20;99.90
13472;DHT22;6808;49.444;11.034;2023-02-14T08:18:16;1.30;99.90
13472;DHT22;6808;49.444;11.034;2023-02-14T08:20:45;1.30;99.90
13472;DHT22;6808;49.444;11.034;2023-02-14T08:23:10;1.40;99.90
13472;DHT22;6808;49.444;11.034;2023-02-14T08:25:37;1.40;99.90
13472;DHT22;6808;49.444;11.034;2023-02-14T08:28:04;1.40;99.90
13472;DHT22;6808;49.444;11.034;2023-02-14T08:30:30;1.30;99.90
13472;DHT22;6808;49.444;11.034;2023-02-14T08:32:55;1.20;99.90
13472;DHT22;6808;49.444;11.034;2023-02-14T08:35:21;1.20;99.90
13472;DHT22;6808;49.444;11.034;2023-02-14T08:37:46;1.30;99.90
13472;DHT22;6808;49.444;11.034;2023-02-14T08:40:12;2.00;99.90
13472;DHT22;6808;49.444;11.034;2023-02-14T08:42:39;1.30;99.90
13472;DHT22;6808;49.444;11.034;2023-02-14T08:45:04;1.30;99.90
13472;DHT22;6808;49.444;11.034;2023-02-14T08:47:31;1.40;99.90
13472;DHT22;6808;49.444;11.034;2023-02-14T08:50:04;1.40;99.90
13472;DHT22;6808;49.444;11.034;2023-02-14T08:52:30;1.30;99.90
13472;DHT22;6808;49.444;11.034;2023-02-14T08:54:56;1.40;99.90
13472;DHT22;6808;49.444;11.034;2023-02-14T08:57:22;1.40;99.90
13472;DHT22;6808;49.444;11.034;2023-02-14T08:59:48;2.00;99.90
13472;DHT22;6808;49.444;11.034;2023-02-14T09:02:13;1.40;99.90
13472;DHT22;6808;49.444;11.034;2023-02-14T09:04:40;1.50;99.90
13472;DHT22;6808;49.444;11.034;2023-02-14T09:07:06;1.60;99.90
13472;DHT22;6808;49.444;11.034;2023-02-14T09:09:32;1.60;99.90
13472;DHT22;6808;49.444;11.034;2023-02-14T09:11:57;1.70;99.90
13472;DHT22;6808;49.444;11.034;2023-02-14T09:14:23;1.80;99.90
13472;DHT22;6808;49.444;11.034;2023-02-14T09:16:49;1.70;99.90
13472;DHT22;6808;49.444;11.034;2023-02-14T09:19:15;1.80;99.90
13472;DHT22;6808;49.444;11.034;2023-02-14T09:21:41;1.80;99.90
13472;DHT22;6808;49.444;11.034;2023-02-14T09:24:07;1.80;99.90
13472;DHT22;6808;49.444;11.034;2023-02-14T09:26:33;1.80;99.90
13472;DHT22;6808;49.444;11.034;2023-02-14T09:29:01;1.90;99.90
13472;DHT22;6808;49.444;11.034;2023-02-14T09:31:26;1.80;99.90
13472;DHT22;6808;49.444;11.034;2023-02-14T09:33:52;1.70;99.90
13472;DHT22;6808;49.444;11.034;2023-02-14T09:36:36;1.60;99.90
13472;DHT22;6808;49.444;11.034;2023-02-14T09:39:20;1.50;99.90
13472;DHT22;6808;49.444;11.034;2023-02-14T09:44:38;1.70;99.90
13472;DHT22;6808;49.444;11.034;2023-02-14T09:50:05;1.90;99.90
13472;DHT22;6808;49.444;11.034;2023-02-14T09:52:33;1.90;99.90
13472;DHT22;6808;49.444;11.034;2023-02-14T09:55:00;2.00;99.90
13472;DHT22;6808;49.444;11.034;2023-02-14T09:58:05;2.00;99.90
13472;DHT22;6808;49.444;11.034;2023-02-14T10:03:15;2.10;99.90
13472;DHT22;6808;49.444;11.034;2023-02-14T10:09:05;2.00;99.90
13472;DHT22;6808;49.444;11.034;2023-02-14T10:11:36;2.10;99.90
13472;DHT22;6808;49.444;11.034;2023-02-14T10:14:15;2.10;99.90
13472;DHT22;6808;49.444;11.034;2023-02-14T10:16:54;2.00;99.90
13472;DHT22;6808;49.444;11.034;2023-02-14T10:19:31;1.90;99.90
13472;DHT22;6808;49.444;11.034;2023-02-14T10:22:01;1.90;99.90
13472;DHT22;6808;49.444;11.034;2023-02-14T10:24:48;1.90;99.90
13472;DHT22;6808;49.444;11.034;2023-02-14T10:29:56;1.90;99.90
13472;DHT22;6808;49.444;11.034;2023-02-14T10:32:39;2.00;99.90
13472;DHT22;6808;49.444;11.034;2023-02-14T10:49:33;2.40;99.90
13472;DHT22;6808;49.444;11.034;2023-02-14T10:52:25;2.40;99.90
13472;DHT22;6808;49.444;11.034;2023-02-14T10:54:56;2.40;99.90
13472;DHT22;6808;49.444;11.034;2023-02-14T10:57:35;2.40;99.90
13472;DHT22;6808;49.444;11.034;2023-02-14T11:00:10;2.50;99.90
13472;DHT22;6808;49.444;11.034;2023-02-14T11:02:43;2.60;99.90
13472;DHT22;6808;49.444;11.034;2023-02-14T11:05:37;2.60;99.90
13472;DHT22;6808;49.444;11.034;2023-02-14T11:08:24;2.60;99.90
13472;DHT22;6808;49.444;11.034;2023-02-14T11:11:14;2.70;99.90
13472;DHT22;6808;49.444;11.034;2023-02-14T11:13:41;2.60;99.90
13472;DHT22;6808;49.444;11.034;2023-02-14T11:16:12;2.50;99.90
13472;DHT22;6808;49.444;11.034;2023-02-14T11:18:42;2.50;99.90
13472;DHT22;6808;49.444;11.034;2023-02-14T11:21:13;2.50;99.90
13472;DHT22;6808;49.444;11.034;2023-02-14T11:23:41;2.30;99.90
13472;DHT22;6808;49.444;11.034;2023-02-14T11:26:21;2.30;99.90
13472;DHT22;6808;49.444;11.034;2023-02-14T11:29:02;2.30;99.90
13472;DHT22;6808;49.444;11.034;2023-02-14T11:31:34;2.40;99.90
13472;DHT22;6808;49.444;11.034;2023-02-14T11:34:02;2.40;99.90
13472;DHT22;6808;49.444;11.034;2023-02-14T11:36:29;2.50;99.90
13472;DHT22;6808;49.444;11.034;2023-02-14T11:41:47;2.60;99.90
13472;DHT22;6808;49.444;11.034;2023-02-14T11:44:16;2.70;99.90
13472;DHT22;6808;49.444;11.034;2023-02-14T11:46:49;2.70;99.90
13472;DHT22;6808;49.444;11.034;2023-02-14T11:49:32;2.80;99.90
13472;DHT22;6808;49.444;11.034;2023-02-14T11:52:07;2.90;99.90
13472;DHT22;6808;49.444;11.034;2023-02-14T11:54:35;2.90;99.90
13472;DHT22;6808;49.444;11.034;2023-02-14T11:59:50;3.00;99.90
13472;DHT22;6808;49.444;11.034;2023-02-14T12:02:43;3.00;99.90
13472;DHT22;6808;49.444;11.034;2023-02-14T12:05:26;3.10;99.90
13472;DHT22;6808;49.444;11.034;2023-02-14T12:07:54;3.00;99.90
13472;DHT22;6808;49.444;11.034;2023-02-14T12:10:34;3.00;99.90
13472;DHT22;6808;49.444;11.034;2023-02-14T12:20:55;3.20;99.90
13472;DHT22;6808;49.444;11.034;2023-02-14T12:23:35;3.30;99.90
13472;DHT22;6808;49.444;11.034;2023-02-14T12:26:37;3.80;99.90
13472;DHT22;6808;49.444;11.034;2023-02-14T12:31:30;3.40;99.90
13472;DHT22;6808;49.444;11.034;2023-02-14T12:33:57;3.30;99.90
13472;DHT22;6808;49.444;11.034;2023-02-14T12:42:53;3.50;99.90
13472;DHT22;6808;49.444;11.034;2023-02-14T12:51:37;3.60;99.90
13472;DHT22;6808;49.444;11.034;2023-02-14T12:57:11;3.70;99.90
13472;DHT22;6808;49.444;11.034;2023-02-14T13:05:07;3.90;99.90
13472;DHT22;6808;49.444;11.034;2023-02-14T13:13:02;3.80;99.90
13472;DHT22;6808;49.444;11.034;2023-02-14T13:15:45;3.80;99.90
13472;DHT22;6808;49.444;11.034;2023-02-14T13:21:22;3.70;99.90
13472;DHT22;6808;49.444;11.034;2023-02-14T13:23:53;3.80;99.90
13472;DHT22;6808;49.444;11.034;2023-02-14T13:26:30;3.70;99.90
13472;DHT22;6808;49.444;11.034;2023-02-14T13:29:09;3.80;99.90
13472;DHT22;6808;49.444;11.034;2023-02-14T13:31:35;3.80;99.90
13472;DHT22;6808;49.444;11.034;2023-02-14T13:36:34;3.80;99.90
13472;DHT22;6808;49.444;11.034;2023-02-14T13:39:02;3.90;99.90
13472;DHT22;6808;49.444;11.034;2023-02-14T13:41:28;3.90;99.90
13472;DHT22;6808;49.444;11.034;2023-02-14T13:43:59;4.10;99.90
13472;DHT22;6808;49.444;11.034;2023-02-14T13:51:55;4.10;99.90
13472;DHT22;6808;49.444;11.034;2023-02-14T13:56:56;4.20;99.90
13472;DHT22;6808;49.444;11.034;2023-02-14T13:59:33;4.20;99.90
13472;DHT22;6808;49.444;11.034;2023-02-14T14:02:29;4.20;99.90
13472;DHT22;6808;49.444;11.034;2023-02-14T14:04:55;4.20;99.90
13472;DHT22;6808;49.444;11.034;2023-02-14T14:07:28;4.20;99.90
13472;DHT22;6808;49.444;11.034;2023-02-14T14:09:59;4.30;99.90
13472;DHT22;6808;49.444;11.034;2023-02-14T14:17:40;4.30;99.90
13472;DHT22;6808;49.444;11.034;2023-02-14T14:22:49;4.30;99.90
13472;DHT22;6808;49.444;11.034;2023-02-14T14:27:57;4.30;99.90
13472;DHT22;6808;49.444;11.034;2023-02-14T14:30:27;4.30;99.90
13472;DHT22;6808;49.444;11.034;2023-02-14T14:32:55;4.50;99.90
13472;DHT22;6808;49.444;11.034;2023-02-14T14:35:24;4.40;99.90
13472;DHT22;6808;49.444;11.034;2023-02-14T14:37:52;4.40;99.90
13472;DHT22;6808;49.444;11.034;2023-02-14T14:40:33;4.50;99.90
13472;DHT22;6808;49.444;11.034;2023-02-14T14:43:05;4.40;99.90
13472;DHT22;6808;49.444;11.034;2023-02-14T14:45:31;4.50;99.90
13472;DHT22;6808;49.444;11.034;2023-02-14T14:47:58;4.50;99.90
13472;DHT22;6808;49.444;11.034;2023-02-14T14:50:30;4.40;99.90
13472;DHT22;6808;49.444;11.034;2023-02-14T14:53:00;4.40;99.90
13472;DHT22;6808;49.444;11.034;2023-02-14T14:55:32;4.30;99.90
13472;DHT22;6808;49.444;11.034;2023-02-14T14:58:06;4.20;99.90
13472;DHT22;6808;49.444;11.034;2023-02-14T15:00:37;4.10;99.90
13472;DHT22;6808;49.444;11.034;2023-02-14T15:03:14;4.10;99.90
13472;DHT22;6808;49.444;11.034;2023-02-14T15:05:49;4.20;99.90
13472;DHT22;6808;49.444;11.034;2023-02-14T15:08:21;4.20;99.90
13472;DHT22;6808;49.444;11.034;2023-02-14T15:10:54;4.10;99.90
13472;DHT22;6808;49.444;11.034;2023-02-14T15:13:32;4.00;99.90
13472;DHT22;6808;49.444;11.034;2023-02-14T15:16:49;4.10;99.90
13472;DHT22;6808;49.444;11.034;2023-02-14T15:19:26;4.10;99.90
13472;DHT22;6808;49.444;11.034;2023-02-14T15:21:59;4.20;99.90
13472;DHT22;6808;49.444;11.034;2023-02-14T15:24:33;4.20;99.90
13472;DHT22;6808;49.444;11.034;2023-02-14T15:27:02;4.20;99.90
13472;DHT22;6808;49.444;11.034;2023-02-14T15:29:30;4.20;99.90
13472;DHT22;6808;49.444;11.034;2023-02-14T15:31:57;4.20;99.90
13472;DHT22;6808;49.444;11.034;2023-02-14T15:34:28;4.20;99.90
13472;DHT22;6808;49.444;11.034;2023-02-14T15:36:55;4.20;99.90
13472;DHT22;6808;49.444;11.034;2023-02-14T15:39:33;4.20;99.90
13472;DHT22;6808;49.444;11.034;2023-02-14T15:42:05;4.20;99.90
13472;DHT22;6808;49.444;11.034;2023-02-14T15:44:45;4.20;99.90
13472;DHT22;6808;49.444;11.034;2023-02-14T15:47:11;4.10;99.90
13472;DHT22;6808;49.444;11.034;2023-02-14T15:49:41;4.10;99.90
13472;DHT22;6808;49.444;11.034;2023-02-14T15:52:12;4.10;99.90
13472;DHT22;6808;49.444;11.034;2023-02-14T15:54:46;4.10;99.90
13472;DHT22;6808;49.444;11.034;2023-02-14T15:57:26;4.10;99.90
13472;DHT22;6808;49.444;11.034;2023-02-14T15:59:54;4.10;99.90
13472;DHT22;6808;49.444;11.034;2023-02-14T16:02:34;4.10;99.90
13472;DHT22;6808;49.444;11.034;2023-02-14T16:07:33;4.10;99.90
13472;DHT22;6808;49.444;11.034;2023-02-14T16:13:05;4.00;99.90
13472;DHT22;6808;49.444;11.034;2023-02-14T16:15:34;4.00;99.90
13472;DHT22;6808;49.444;11.034;2023-02-14T16:18:01;4.00;99.90
13472;DHT22;6808;49.444;11.034;2023-02-14T16:20:37;4.00;99.90
13472;DHT22;6808;49.444;11.034;2023-02-14T16:23:22;4.00;99.90
13472;DHT22;6808;49.444;11.034;2023-02-14T16:25:49;3.90;99.90
13472;DHT22;6808;49.444;11.034;2023-02-14T16:28:15;3.90;99.90
13472;DHT22;6808;49.444;11.034;2023-02-14T16:30:43;3.80;99.90
13472;DHT22;6808;49.444;11.034;2023-02-14T16:33:20;3.80;99.90
13472;DHT22;6808;49.444;11.034;2023-02-14T16:35:49;3.70;99.90
13472;DHT22;6808;49.444;11.034;2023-02-14T16:38:19;3.70;99.90
13472;DHT22;6808;49.444;11.034;2023-02-14T16:40:55;3.70;99.90
13472;DHT22;6808;49.444;11.034;2023-02-14T16:43:22;3.60;99.90
13472;DHT22;6808;49.444;11.034;2023-02-14T16:45:59;3.50;99.90
13472;DHT22;6808;49.444;11.034;2023-02-14T16:48:25;3.50;99.90
13472;DHT22;6808;49.444;11.034;2023-02-14T16:50:50;3.40;99.90
13472;DHT22;6808;49.444;11.034;2023-02-14T16:53:23;3.40;99.90
13472;DHT22;6808;49.444;11.034;2023-02-14T16:55:52;3.30;99.90
13472;DHT22;6808;49.444;11.034;2023-02-14T16:58:19;3.30;99.90
13472;DHT22;6808;49.444;11.034;2023-02-14T17:00:45;3.20;99.90
13472;DHT22;6808;49.444;11.034;2023-02-14T17:03:10;3.10;99.90
13472;DHT22;6808;49.444;11.034;2023-02-14T17:05:37;3.10;99.90
13472;DHT22;6808;49.444;11.034;2023-02-14T17:08:03;3.10;99.90
13472;DHT22;6808;49.444;11.034;2023-02-14T17:10:30;3.00;99.90
13472;DHT22;6808;49.444;11.034;2023-02-14T17:13:01;3.00;99.90
13472;DHT22;6808;49.444;11.034;2023-02-14T17:15:28;2.90;99.90
13472;DHT22;6808;49.444;11.034;2023-02-14T17:17:59;2.80;99.90
13472;DHT22;6808;49.444;11.034;2023-02-14T17:20:27;2.80;99.90
13472;DHT22;6808;49.444;11.034;2023-02-14T17:22:57;2.70;99.90
13472;DHT22;6808;49.444;11.034;2023-02-14T17:25:24;2.70;99.90
13472;DHT22;6808;49.444;11.034;2023-02-14T17:27:49;2.70;99.90
13472;DHT22;6808;49.444;11.034;2023-02-14T17:30:15;2.60;99.90
13472;DHT22;6808;49.444;11.034;2023-02-14T17:32:41;2.60;99.90
13472;DHT22;6808;49.444;11.034;2023-02-14T17:35:07;2.60;99.90
13472;DHT22;6808;49.444;11.034;2023-02-14T17:37:34;2.50;99.90
13472;DHT22;6808;49.444;11.034;2023-02-14T17:40:00;2.50;99.90
13472;DHT22;6808;49.444;11.034;2023-02-14T17:42:25;2.50;99.90
13472;DHT22;6808;49.444;11.034;2023-02-14T17:44:51;2.50;99.90
13472;DHT22;6808;49.444;11.034;2023-02-14T17:47:17;2.40;99.90
13472;DHT22;6808;49.444;11.034;2023-02-14T17:49:45;2.50;99.90
13472;DHT22;6808;49.444;11.034;2023-02-14T17:52:14;2.50;99.90
13472;DHT22;6808;49.444;11.034;2023-02-14T17:54:41;2.40;99.90
13472;DHT22;6808;49.444;11.034;2023-02-14T17:57:08;2.40;99.90
13472;DHT22;6808;49.444;11.034;2023-02-14T17:59:34;2.40;99.90
13472;DHT22;6808;49.444;11.034;2023-02-14T18:01:59;2.40;99.90
13472;DHT22;6808;49.444;11.034;2023-02-14T18:04:25;2.40;99.90
13472;DHT22;6808;49.444;11.034;2023-02-14T18:06:51;2.50;99.90
13472;DHT22;6808;49.444;11.034;2023-02-14T18:09:16;2.50;99.90
13472;DHT22;6808;49.444;11.034;2023-02-14T18:11:44;2.50;99.90
13472;DHT22;6808;49.444;11.034;2023-02-14T18:14:10;2.40;99.90